sensor_id;sensor_type;location;lat;lon;timestamp;P1;durP1;ratioP1;P2;durP2;ratioP2
39930;SDS011;26635;-35.248;149.138;2023-03-23T00:01:25;4.03;;;2.03;;
39930;SDS011;26635;-35.248;149.138;2023-03-23T00:03:57;3.72;;;2.17;;
39930;SDS011;26635;-35.248;149.138;2023-03-23T00:06:26;3.40;;;1.77;;
39930;SDS011;26635;-35.248;149.138;2023-03-23T00:09:01;2.67;;;1.50;;
39930;SDS011;26635;-35.248;149.138;2023-03-23T00:11:30;4.40;;;2.72;;
39930;SDS011;26635;-35.248;149.138;2023-03-23T00:14:00;2.95;;;2.28;;
39930;SDS011;26635;-35.248;149.138;2023-03-23T00:16:30;2.58;;;1.83;;
39930;SDS011;26635;-35.248;149.138;2023-03-23T00:19:00;5.32;;;2.60;;
39930;SDS011;26635;-35.248;149.138;2023-03-23T00:21:32;5.57;;;2.67;;
39930;SDS011;26635;-35.248;149.138;2023-03-23T00:24:11;3.20;;;2.25;;
39930;SDS011;26635;-35.248;149.138;2023-03-23T00:26:44;4.35;;;2.25;;
39930;SDS011;26635;-35.248;149.138;2023-03-23T00:29:16;3.65;;;2.13;;
39930;SDS011;26635;-35.248;149.138;2023-03-23T00:31:49;4.30;;;2.53;;
39930;SDS011;26635;-35.248;149.138;2023-03-23T00:34:22;2.88;;;2.00;;
39930;SDS011;26635;-35.248;149.138;2023-03-23T00:36:52;3.55;;;1.77;;
39930;SDS011;26635;-35.248;149.138;2023-03-23T00:39:23;4.15;;;2.35;;
39930;SDS011;26635;-35.248;149.138;2023-03-23T00:41:53;3.53;;;1.77;;
39930;SDS011;26635;-35.248;149.138;2023-03-23T00:44:27;2.45;;;1.85;;
39930;SDS011;26635;-35.248;149.138;2023-03-23T00:46:56;3.35;;;2.08;;
39930;SDS011;26635;-35.248;149.138;2023-03-23T00:49:25;3.85;;;2.13;;
39930;SDS011;26635;-35.248;149.138;2023-03-23T00:51:55;5.53;;;2.28;;
39930;SDS011;26635;-35.248;149.138;2023-03-23T00:54:24;2.53;;;1.75;;
39930;SDS011;26635;-35.248;149.138;2023-03-23T00:56:53;2.63;;;1.67;;
39930;SDS011;26635;-35.248;149.138;2023-03-23T00:59:21;5.47;;;2.20;;
39930;SDS011;26635;-35.248;149.138;2023-03-23T01:01:50;5.85;;;2.10;;
39930;SDS011;26635;-35.248;149.138;2023-03-23T01:04:18;3.58;;;1.95;;
39930;SDS011;26635;-35.248;149.138;2023-03-23T01:06:48;4.75;;;2.42;;
39930;SDS011;26635;-35.248;149.138;2023-03-23T01:09:18;4.45;;;2.30;;
39930;SDS011;26635;-35.248;149.138;2023-03-23T01:11:50;3.85;;;2.25;;
39930;SDS011;26635;-35.248;149.138;2023-03-23T01:14:22;3.17;;;2.33;;
39930;SDS011;26635;-35.248;149.138;2023-03-23T01:16:51;9.27;;;1.98;;
39930;SDS011;26635;-35.248;149.138;2023-03-23T01:19:20;3.40;;;2.00;;
39930;SDS011;26635;-35.248;149.138;2023-03-23T01:21:48;3.40;;;2.38;;
39930;SDS011;26635;-35.248;149.138;2023-03-23T01:24:16;3.28;;;1.90;;
39930;SDS011;26635;-35.248;149.138;2023-03-23T01:26:44;4.40;;;1.88;;
39930;SDS011;26635;-35.248;149.138;2023-03-23T01:29:12;4.57;;;2.03;;
39930;SDS011;26635;-35.248;149.138;2023-03-23T01:31:41;3.42;;;1.90;;
39930;SDS011;26635;-35.248;149.138;2023-03-23T01:34:09;4.65;;;1.98;;
39930;SDS011;26635;-35.248;149.138;2023-03-23T01:36:38;4.47;;;2.25;;
39930;SDS011;26635;-35.248;149.138;2023-03-23T01:39:06;3.42;;;1.58;;
39930;SDS011;26635;-35.248;149.138;2023-03-23T01:41:34;5.70;;;1.48;;
39930;SDS011;26635;-35.248;149.138;2023-03-23T01:44:04;3.03;;;1.17;;
39930;SDS011;26635;-35.248;149.138;2023-03-23T01:46:35;5.25;;;1.92;;
39930;SDS011;26635;-35.248;149.138;2023-03-23T01:49:06;3.65;;;1.13;;
39930;SDS011;26635;-35.248;149.138;2023-03-23T01:51:49;3.53;;;1.58;;
39930;SDS011;26635;-35.248;149.138;2023-03-23T01:54:24;4.03;;;1.40;;
39930;SDS011;26635;-35.248;149.138;2023-03-23T01:57:01;3.55;;;1.98;;
39930;SDS011;26635;-35.248;149.138;2023-03-23T01:59:36;5.05;;;2.40;;
39930;SDS011;26635;-35.248;149.138;2023-03-23T02:02:07;4.05;;;1.90;;
39930;SDS011;26635;-35.248;149.138;2023-03-23T02:04:37;2.38;;;1.38;;
39930;SDS011;26635;-35.248;149.138;2023-03-23T02:07:08;1.98;;;1.40;;
39930;SDS011;26635;-35.248;149.138;2023-03-23T02:09:39;2.15;;;1.02;;
39930;SDS011;26635;-35.248;149.138;2023-03-23T02:12:07;1.90;;;1.00;;
39930;SDS011;26635;-35.248;149.138;2023-03-23T02:14:35;2.97;;;1.30;;
39930;SDS011;26635;-35.248;149.138;2023-03-23T02:23:21;1.52;;;1.15;;
39930;SDS011;26635;-35.248;149.138;2023-03-23T02:36:58;1.67;;;0.98;;
39930;SDS011;26635;-35.248;149.138;2023-03-23T02:39:31;1.23;;;0.93;;
39930;SDS011;26635;-35.248;149.138;2023-03-23T02:42:09;2.03;;;1.00;;
39930;SDS011;26635;-35.248;149.138;2023-03-23T02:44:40;3.30;;;1.25;;
39930;SDS011;26635;-35.248;149.138;2023-03-23T02:47:12;3.20;;;1.52;;
39930;SDS011;26635;-35.248;149.138;2023-03-23T02:49:49;1.50;;;1.00;;
39930;SDS011;26635;-35.248;149.138;2023-03-23T02:52:21;1.90;;;1.08;;
39930;SDS011;26635;-35.248;149.138;2023-03-23T02:54:52;1.75;;;1.20;;
39930;SDS011;26635;-35.248;149.138;2023-03-23T02:57:24;2.15;;;0.95;;
39930;SDS011;26635;-35.248;149.138;2023-03-23T02:59:54;3.90;;;1.33;;
39930;SDS011;26635;-35.248;149.138;2023-03-23T03:08:00;2.85;;;0.95;;
39930;SDS011;26635;-35.248;149.138;2023-03-23T03:21:54;1.60;;;1.15;;
39930;SDS011;26635;-35.248;149.138;2023-03-23T03:24:26;1.35;;;0.88;;
39930;SDS011;26635;-35.248;149.138;2023-03-23T03:26:57;1.63;;;0.93;;
39930;SDS011;26635;-35.248;149.138;2023-03-23T03:29:28;1.83;;;1.10;;
39930;SDS011;26635;-35.248;149.138;2023-03-23T03:31:59;1.25;;;1.00;;
39930;SDS011;26635;-35.248;149.138;2023-03-23T03:34:32;2.70;;;0.93;;
39930;SDS011;26635;-35.248;149.138;2023-03-23T03:37:01;1.92;;;0.90;;
39930;SDS011;26635;-35.248;149.138;2023-03-23T03:39:34;4.22;;;0.88;;
39930;SDS011;26635;-35.248;149.138;2023-03-23T03:42:03;2.75;;;1.38;;
39930;SDS011;26635;-35.248;149.138;2023-03-23T03:44:33;2.33;;;1.40;;
39930;SDS011;26635;-35.248;149.138;2023-03-23T03:47:02;1.55;;;0.90;;
39930;SDS011;26635;-35.248;149.138;2023-03-23T03:49:30;4.25;;;1.35;;
39930;SDS011;26635;-35.248;149.138;2023-03-23T03:51:59;1.50;;;0.80;;
39930;SDS011;26635;-35.248;149.138;2023-03-23T03:54:27;4.20;;;0.95;;
39930;SDS011;26635;-35.248;149.138;2023-03-23T03:56:56;2.55;;;1.08;;
39930;SDS011;26635;-35.248;149.138;2023-03-23T03:59:25;3.38;;;0.77;;
39930;SDS011;26635;-35.248;149.138;2023-03-23T04:01:54;1.27;;;0.90;;
39930;SDS011;26635;-35.248;149.138;2023-03-23T04:04:22;1.85;;;0.82;;
39930;SDS011;26635;-35.248;149.138;2023-03-23T04:06:50;1.75;;;1.40;;
39930;SDS011;26635;-35.248;149.138;2023-03-23T04:09:18;1.98;;;1.10;;
39930;SDS011;26635;-35.248;149.138;2023-03-23T04:11:47;3.40;;;1.10;;
39930;SDS011;26635;-35.248;149.138;2023-03-23T04:14:15;1.80;;;1.00;;
39930;SDS011;26635;-35.248;149.138;2023-03-23T04:16:44;2.50;;;1.05;;
39930;SDS011;26635;-35.248;149.138;2023-03-23T04:19:12;1.52;;;1.02;;
39930;SDS011;26635;-35.248;149.138;2023-03-23T04:21:41;1.75;;;1.20;;
39930;SDS011;26635;-35.248;149.138;2023-03-23T04:24:17;1.38;;;1.00;;
39930;SDS011;26635;-35.248;149.138;2023-03-23T04:26:47;1.15;;;0.90;;
39930;SDS011;26635;-35.248;149.138;2023-03-23T04:29:18;1.45;;;0.70;;
39930;SDS011;26635;-35.248;149.138;2023-03-23T04:31:46;3.13;;;1.08;;
39930;SDS011;26635;-35.248;149.138;2023-03-23T04:34:16;1.70;;;0.93;;
39930;SDS011;26635;-35.248;149.138;2023-03-23T04:36:45;2.42;;;1.33;;
39930;SDS011;26635;-35.248;149.138;2023-03-23T04:39:14;4.97;;;1.30;;
39930;SDS011;26635;-35.248;149.138;2023-03-23T04:41:42;1.33;;;1.15;;
39930;SDS011;26635;-35.248;149.138;2023-03-23T04:44:12;1.42;;;0.85;;
39930;SDS011;26635;-35.248;149.138;2023-03-23T04:46:44;1.48;;;1.25;;
39930;SDS011;26635;-35.248;149.138;2023-03-23T04:49:15;2.10;;;0.93;;
39930;SDS011;26635;-35.248;149.138;2023-03-23T04:51:47;2.40;;;1.20;;
39930;SDS011;26635;-35.248;149.138;2023-03-23T04:54:16;2.47;;;1.30;;
39930;SDS011;26635;-35.248;149.138;2023-03-23T04:56:45;1.70;;;0.95;;
39930;SDS011;26635;-35.248;149.138;2023-03-23T04:59:13;1.05;;;0.90;;
39930;SDS011;26635;-35.248;149.138;2023-03-23T05:01:41;2.95;;;1.27;;
39930;SDS011;26635;-35.248;149.138;2023-03-23T05:04:11;2.30;;;0.98;;
39930;SDS011;26635;-35.248;149.138;2023-03-23T05:06:42;5.20;;;1.00;;
39930;SDS011;26635;-35.248;149.138;2023-03-23T05:09:13;2.05;;;1.00;;
39930;SDS011;26635;-35.248;149.138;2023-03-23T05:11:42;1.33;;;0.90;;
39930;SDS011;26635;-35.248;149.138;2023-03-23T05:14:11;1.20;;;1.10;;
39930;SDS011;26635;-35.248;149.138;2023-03-23T05:16:39;0.90;;;0.90;;
39930;SDS011;26635;-35.248;149.138;2023-03-23T05:19:07;3.30;;;0.90;;
39930;SDS011;26635;-35.248;149.138;2023-03-23T05:21:35;1.10;;;1.00;;
39930;SDS011;26635;-35.248;149.138;2023-03-23T05:24:03;1.15;;;0.90;;
39930;SDS011;26635;-35.248;149.138;2023-03-23T05:26:32;1.27;;;1.00;;
39930;SDS011;26635;-35.248;149.138;2023-03-23T05:29:00;1.30;;;1.00;;
39930;SDS011;26635;-35.248;149.138;2023-03-23T05:31:28;1.83;;;1.10;;
39930;SDS011;26635;-35.248;149.138;2023-03-23T05:33:56;2.35;;;1.08;;
39930;SDS011;26635;-35.248;149.138;2023-03-23T05:36:25;1.70;;;1.00;;
39930;SDS011;26635;-35.248;149.138;2023-03-23T05:38:54;1.20;;;1.00;;
39930;SDS011;26635;-35.248;149.138;2023-03-23T05:41:22;1.92;;;0.80;;
39930;SDS011;26635;-35.248;149.138;2023-03-23T05:43:52;1.40;;;1.10;;
39930;SDS011;26635;-35.248;149.138;2023-03-23T05:46:20;2.08;;;1.00;;
39930;SDS011;26635;-35.248;149.138;2023-03-23T05:48:48;3.83;;;0.70;;
39930;SDS011;26635;-35.248;149.138;2023-03-23T05:51:16;0.90;;;0.80;;
39930;SDS011;26635;-35.248;149.138;2023-03-23T05:53:45;2.55;;;0.85;;
39930;SDS011;26635;-35.248;149.138;2023-03-23T05:56:14;1.23;;;0.90;;
39930;SDS011;26635;-35.248;149.138;2023-03-23T05:58:42;2.95;;;1.00;;
39930;SDS011;26635;-35.248;149.138;2023-03-23T06:01:10;1.70;;;0.98;;
39930;SDS011;26635;-35.248;149.138;2023-03-23T06:03:41;1.88;;;1.05;;
39930;SDS011;26635;-35.248;149.138;2023-03-23T06:06:12;2.05;;;1.20;;
39930;SDS011;26635;-35.248;149.138;2023-03-23T06:08:40;2.10;;;1.00;;
39930;SDS011;26635;-35.248;149.138;2023-03-23T06:11:09;3.13;;;1.02;;
39930;SDS011;26635;-35.248;149.138;2023-03-23T06:13:38;1.65;;;0.82;;
39930;SDS011;26635;-35.248;149.138;2023-03-23T06:16:06;2.20;;;1.00;;
39930;SDS011;26635;-35.248;149.138;2023-03-23T06:18:35;1.80;;;1.10;;
39930;SDS011;26635;-35.248;149.138;2023-03-23T06:21:03;1.63;;;0.95;;
39930;SDS011;26635;-35.248;149.138;2023-03-23T06:23:32;1.70;;;1.23;;
39930;SDS011;26635;-35.248;149.138;2023-03-23T06:26:02;1.48;;;1.08;;
39930;SDS011;26635;-35.248;149.138;2023-03-23T06:28:32;1.10;;;0.80;;
39930;SDS011;26635;-35.248;149.138;2023-03-23T06:31:03;3.08;;;0.98;;
39930;SDS011;26635;-35.248;149.138;2023-03-23T06:33:34;1.02;;;0.73;;
39930;SDS011;26635;-35.248;149.138;2023-03-23T06:36:04;3.58;;;1.27;;
39930;SDS011;26635;-35.248;149.138;2023-03-23T06:38:33;3.08;;;1.52;;
39930;SDS011;26635;-35.248;149.138;2023-03-23T06:41:01;2.10;;;1.25;;
39930;SDS011;26635;-35.248;149.138;2023-03-23T06:43:29;2.78;;;1.25;;
39930;SDS011;26635;-35.248;149.138;2023-03-23T06:46:00;1.88;;;1.10;;
39930;SDS011;26635;-35.248;149.138;2023-03-23T06:48:28;1.23;;;0.90;;
39930;SDS011;26635;-35.248;149.138;2023-03-23T06:50:57;0.70;;;0.45;;
39930;SDS011;26635;-35.248;149.138;2023-03-23T06:53:25;1.02;;;0.63;;
39930;SDS011;26635;-35.248;149.138;2023-03-23T06:55:53;1.83;;;0.60;;
39930;SDS011;26635;-35.248;149.138;2023-03-23T06:58:21;3.20;;;0.60;;
39930;SDS011;26635;-35.248;149.138;2023-03-23T07:00:56;1.20;;;0.40;;
39930;SDS011;26635;-35.248;149.138;2023-03-23T07:03:24;0.88;;;0.50;;
39930;SDS011;26635;-35.248;149.138;2023-03-23T07:05:54;0.77;;;0.50;;
39930;SDS011;26635;-35.248;149.138;2023-03-23T07:08:22;1.27;;;0.68;;
39930;SDS011;26635;-35.248;149.138;2023-03-23T07:10:51;1.08;;;0.68;;
39930;SDS011;26635;-35.248;149.138;2023-03-23T07:13:20;1.00;;;0.90;;
39930;SDS011;26635;-35.248;149.138;2023-03-23T07:15:49;0.82;;;0.60;;
39930;SDS011;26635;-35.248;149.138;2023-03-23T07:18:17;0.80;;;0.60;;
39930;SDS011;26635;-35.248;149.138;2023-03-23T07:20:49;2.17;;;1.00;;
39930;SDS011;26635;-35.248;149.138;2023-03-23T07:23:21;3.80;;;0.50;;
39930;SDS011;26635;-35.248;149.138;2023-03-23T07:25:50;0.75;;;0.50;;
39930;SDS011;26635;-35.248;149.138;2023-03-23T07:28:18;1.23;;;0.60;;
39930;SDS011;26635;-35.248;149.138;2023-03-23T07:30:47;1.10;;;0.85;;
39930;SDS011;26635;-35.248;149.138;2023-03-23T07:33:15;2.50;;;0.77;;
39930;SDS011;26635;-35.248;149.138;2023-03-23T07:35:43;0.63;;;0.50;;
39930;SDS011;26635;-35.248;149.138;2023-03-23T07:38:12;1.17;;;0.60;;
39930;SDS011;26635;-35.248;149.138;2023-03-23T07:40:45;1.75;;;0.95;;
39930;SDS011;26635;-35.248;149.138;2023-03-23T07:43:13;11.32;;;0.82;;
39930;SDS011;26635;-35.248;149.138;2023-03-23T07:45:45;1.58;;;0.75;;
39930;SDS011;26635;-35.248;149.138;2023-03-23T07:48:14;2.22;;;0.60;;
39930;SDS011;26635;-35.248;149.138;2023-03-23T07:50:42;1.13;;;0.70;;
39930;SDS011;26635;-35.248;149.138;2023-03-23T07:53:10;1.58;;;0.65;;
39930;SDS011;26635;-35.248;149.138;2023-03-23T07:55:38;1.55;;;0.93;;
39930;SDS011;26635;-35.248;149.138;2023-03-23T07:58:06;4.18;;;0.88;;
39930;SDS011;26635;-35.248;149.138;2023-03-23T08:00:35;1.10;;;0.98;;
39930;SDS011;26635;-35.248;149.138;2023-03-23T08:03:04;1.95;;;0.90;;
39930;SDS011;26635;-35.248;149.138;2023-03-23T08:05:33;1.30;;;0.82;;
39930;SDS011;26635;-35.248;149.138;2023-03-23T08:08:02;0.82;;;0.60;;
39930;SDS011;26635;-35.248;149.138;2023-03-23T08:10:30;2.05;;;0.70;;
39930;SDS011;26635;-35.248;149.138;2023-03-23T08:12:59;2.33;;;1.48;;
39930;SDS011;26635;-35.248;149.138;2023-03-23T08:15:28;1.42;;;0.70;;
39930;SDS011;26635;-35.248;149.138;2023-03-23T08:17:57;2.25;;;0.82;;
39930;SDS011;26635;-35.248;149.138;2023-03-23T08:20:27;3.78;;;0.80;;
39930;SDS011;26635;-35.248;149.138;2023-03-23T08:22:56;2.97;;;1.02;;
39930;SDS011;26635;-35.248;149.138;2023-03-23T08:25:26;3.10;;;1.58;;
39930;SDS011;26635;-35.248;149.138;2023-03-23T08:27:58;2.97;;;1.23;;
39930;SDS011;26635;-35.248;149.138;2023-03-23T08:30:30;3.08;;;1.35;;
39930;SDS011;26635;-35.248;149.138;2023-03-23T08:33:00;3.05;;;1.48;;
39930;SDS011;26635;-35.248;149.138;2023-03-23T08:35:31;4.00;;;2.40;;
39930;SDS011;26635;-35.248;149.138;2023-03-23T08:37:59;4.22;;;2.75;;
39930;SDS011;26635;-35.248;149.138;2023-03-23T08:40:27;4.53;;;2.25;;
39930;SDS011;26635;-35.248;149.138;2023-03-23T08:42:55;2.80;;;1.70;;
39930;SDS011;26635;-35.248;149.138;2023-03-23T08:45:24;3.22;;;1.75;;
39930;SDS011;26635;-35.248;149.138;2023-03-23T08:48:06;3.08;;;1.17;;
39930;SDS011;26635;-35.248;149.138;2023-03-23T08:50:35;3.30;;;0.98;;
39930;SDS011;26635;-35.248;149.138;2023-03-23T08:55:34;2.42;;;1.20;;
39930;SDS011;26635;-35.248;149.138;2023-03-23T08:58:03;2.90;;;1.50;;
39930;SDS011;26635;-35.248;149.138;2023-03-23T09:00:31;3.22;;;1.42;;
39930;SDS011;26635;-35.248;149.138;2023-03-23T09:02:59;3.75;;;1.85;;
39930;SDS011;26635;-35.248;149.138;2023-03-23T09:05:28;4.25;;;1.65;;
39930;SDS011;26635;-35.248;149.138;2023-03-23T09:07:57;2.63;;;1.92;;
39930;SDS011;26635;-35.248;149.138;2023-03-23T09:10:26;2.13;;;1.45;;
39930;SDS011;26635;-35.248;149.138;2023-03-23T09:12:56;2.22;;;1.50;;
39930;SDS011;26635;-35.248;149.138;2023-03-23T09:15:25;3.63;;;1.63;;
39930;SDS011;26635;-35.248;149.138;2023-03-23T09:17:54;2.80;;;1.50;;
39930;SDS011;26635;-35.248;149.138;2023-03-23T09:20:24;2.55;;;1.60;;
39930;SDS011;26635;-35.248;149.138;2023-03-23T09:22:54;4.00;;;1.42;;
39930;SDS011;26635;-35.248;149.138;2023-03-23T09:25:25;3.95;;;2.25;;
39930;SDS011;26635;-35.248;149.138;2023-03-23T09:27:55;3.10;;;1.30;;
39930;SDS011;26635;-35.248;149.138;2023-03-23T09:30:27;3.83;;;1.63;;
39930;SDS011;26635;-35.248;149.138;2023-03-23T09:32:58;3.45;;;2.05;;
39930;SDS011;26635;-35.248;149.138;2023-03-23T09:35:28;3.42;;;2.10;;
39930;SDS011;26635;-35.248;149.138;2023-03-23T09:37:57;4.75;;;2.42;;
39930;SDS011;26635;-35.248;149.138;2023-03-23T09:40:54;4.60;;;2.15;;
39930;SDS011;26635;-35.248;149.138;2023-03-23T09:46:13;3.05;;;1.80;;
39930;SDS011;26635;-35.248;149.138;2023-03-23T09:48:59;6.10;;;1.90;;
39930;SDS011;26635;-35.248;149.138;2023-03-23T09:51:49;5.05;;;2.47;;
39930;SDS011;26635;-35.248;149.138;2023-03-23T09:54:37;5.68;;;2.42;;
39930;SDS011;26635;-35.248;149.138;2023-03-23T09:57:28;5.72;;;2.70;;
39930;SDS011;26635;-35.248;149.138;2023-03-23T10:02:59;7.40;;;3.70;;
39930;SDS011;26635;-35.248;149.138;2023-03-23T10:05:42;7.10;;;3.70;;
39930;SDS011;26635;-35.248;149.138;2023-03-23T10:08:23;5.55;;;3.25;;
39930;SDS011;26635;-35.248;149.138;2023-03-23T10:11:03;5.65;;;2.25;;
39930;SDS011;26635;-35.248;149.138;2023-03-23T10:17:00;2.65;;;1.67;;
39930;SDS011;26635;-35.248;149.138;2023-03-23T10:20:09;3.65;;;1.70;;
39930;SDS011;26635;-35.248;149.138;2023-03-23T10:22:43;2.60;;;1.33;;
39930;SDS011;26635;-35.248;149.138;2023-03-23T10:25:42;3.67;;;2.10;;
39930;SDS011;26635;-35.248;149.138;2023-03-23T10:28:37;5.00;;;1.95;;
39930;SDS011;26635;-35.248;149.138;2023-03-23T10:31:10;3.63;;;1.88;;
39930;SDS011;26635;-35.248;149.138;2023-03-23T10:33:46;3.58;;;1.83;;
39930;SDS011;26635;-35.248;149.138;2023-03-23T10:36:26;3.35;;;1.70;;
39930;SDS011;26635;-35.248;149.138;2023-03-23T10:41:41;2.03;;;1.60;;
39930;SDS011;26635;-35.248;149.138;2023-03-23T10:44:30;2.40;;;1.40;;
39930;SDS011;26635;-35.248;149.138;2023-03-23T10:47:04;3.13;;;1.67;;
39930;SDS011;26635;-35.248;149.138;2023-03-23T10:52:30;3.60;;;2.33;;
39930;SDS011;26635;-35.248;149.138;2023-03-23T10:55:08;2.70;;;1.85;;
39930;SDS011;26635;-35.248;149.138;2023-03-23T10:57:46;5.25;;;2.50;;
39930;SDS011;26635;-35.248;149.138;2023-03-23T11:00:29;5.15;;;2.40;;
39930;SDS011;26635;-35.248;149.138;2023-03-23T11:03:02;3.83;;;2.00;;
39930;SDS011;26635;-35.248;149.138;2023-03-23T11:05:36;5.78;;;1.88;;
39930;SDS011;26635;-35.248;149.138;2023-03-23T11:08:13;2.78;;;2.20;;
39930;SDS011;26635;-35.248;149.138;2023-03-23T11:10:53;4.68;;;2.45;;
39930;SDS011;26635;-35.248;149.138;2023-03-23T11:13:31;2.78;;;1.90;;
39930;SDS011;26635;-35.248;149.138;2023-03-23T11:16:01;4.32;;;1.95;;
39930;SDS011;26635;-35.248;149.138;2023-03-23T11:18:39;2.90;;;1.60;;
39930;SDS011;26635;-35.248;149.138;2023-03-23T11:21:12;2.40;;;1.60;;
39930;SDS011;26635;-35.248;149.138;2023-03-23T11:23:42;2.47;;;1.73;;
39930;SDS011;26635;-35.248;149.138;2023-03-23T11:26:22;2.80;;;1.92;;
39930;SDS011;26635;-35.248;149.138;2023-03-23T11:34:44;3.47;;;2.30;;
39930;SDS011;26635;-35.248;149.138;2023-03-23T11:40:00;3.30;;;2.13;;
39930;SDS011;26635;-35.248;149.138;2023-03-23T11:50:55;4.45;;;2.10;;
39930;SDS011;26635;-35.248;149.138;2023-03-23T11:56:15;5.65;;;2.30;;
39930;SDS011;26635;-35.248;149.138;2023-03-23T11:58:56;3.60;;;2.15;;
39930;SDS011;26635;-35.248;149.138;2023-03-23T12:07:11;3.78;;;2.30;;
39930;SDS011;26635;-35.248;149.138;2023-03-23T12:10:09;2.80;;;1.92;;
39930;SDS011;26635;-35.248;149.138;2023-03-23T12:38:48;3.40;;;2.13;;
39930;SDS011;26635;-35.248;149.138;2023-03-23T12:44:07;5.80;;;2.33;;
39930;SDS011;26635;-35.248;149.138;2023-03-23T12:54:34;4.25;;;2.40;;
39930;SDS011;26635;-35.248;149.138;2023-03-23T12:57:32;4.13;;;2.05;;
39930;SDS011;26635;-35.248;149.138;2023-03-23T13:07:08;5.28;;;2.08;;
39930;SDS011;26635;-35.248;149.138;2023-03-23T13:11:40;3.17;;;2.22;;
39930;SDS011;26635;-35.248;149.138;2023-03-23T13:17:18;4.50;;;2.17;;
39930;SDS011;26635;-35.248;149.138;2023-03-23T13:25:15;4.22;;;2.08;;
39930;SDS011;26635;-35.248;149.138;2023-03-23T13:28:03;3.05;;;2.25;;
39930;SDS011;26635;-35.248;149.138;2023-03-23T13:30:31;3.78;;;2.10;;
39930;SDS011;26635;-35.248;149.138;2023-03-23T13:33:06;4.13;;;1.95;;
39930;SDS011;26635;-35.248;149.138;2023-03-23T13:35:41;5.53;;;2.28;;
39930;SDS011;26635;-35.248;149.138;2023-03-23T13:38:15;5.25;;;2.17;;
39930;SDS011;26635;-35.248;149.138;2023-03-23T13:40:47;3.00;;;2.17;;
39930;SDS011;26635;-35.248;149.138;2023-03-23T13:43:30;3.50;;;1.95;;
39930;SDS011;26635;-35.248;149.138;2023-03-23T13:46:10;3.40;;;2.15;;
39930;SDS011;26635;-35.248;149.138;2023-03-23T13:54:06;2.60;;;1.50;;
39930;SDS011;26635;-35.248;149.138;2023-03-23T14:05:37;4.35;;;2.08;;
39930;SDS011;26635;-35.248;149.138;2023-03-23T14:14:13;4.20;;;2.13;;
39930;SDS011;26635;-35.248;149.138;2023-03-23T14:19:25;6.28;;;1.85;;
39930;SDS011;26635;-35.248;149.138;2023-03-23T14:21:57;2.45;;;1.45;;
39930;SDS011;26635;-35.248;149.138;2023-03-23T14:24:28;4.57;;;1.95;;
39930;SDS011;26635;-35.248;149.138;2023-03-23T14:27:17;5.68;;;1.95;;
39930;SDS011;26635;-35.248;149.138;2023-03-23T14:30:04;5.03;;;1.75;;
39930;SDS011;26635;-35.248;149.138;2023-03-23T14:32:34;2.30;;;1.35;;
39930;SDS011;26635;-35.248;149.138;2023-03-23T14:35:06;3.25;;;1.70;;
39930;SDS011;26635;-35.248;149.138;2023-03-23T14:37:55;2.60;;;1.50;;
39930;SDS011;26635;-35.248;149.138;2023-03-23T14:40:28;2.05;;;1.38;;
39930;SDS011;26635;-35.248;149.138;2023-03-23T14:42:57;2.35;;;1.30;;
39930;SDS011;26635;-35.248;149.138;2023-03-23T14:45:27;5.40;;;1.67;;
39930;SDS011;26635;-35.248;149.138;2023-03-23T14:47:58;3.72;;;1.50;;
39930;SDS011;26635;-35.248;149.138;2023-03-23T14:50:37;2.20;;;1.15;;
39930;SDS011;26635;-35.248;149.138;2023-03-23T14:53:15;4.43;;;1.50;;
39930;SDS011;26635;-35.248;149.138;2023-03-23T14:55:54;1.73;;;1.08;;
39930;SDS011;26635;-35.248;149.138;2023-03-23T14:58:23;2.67;;;1.42;;
39930;SDS011;26635;-35.248;149.138;2023-03-23T15:01:03;3.92;;;1.35;;
39930;SDS011;26635;-35.248;149.138;2023-03-23T15:03:38;3.55;;;1.50;;
39930;SDS011;26635;-35.248;149.138;2023-03-23T15:06:12;3.00;;;1.10;;
39930;SDS011;26635;-35.248;149.138;2023-03-23T15:08:43;2.95;;;1.65;;
39930;SDS011;26635;-35.248;149.138;2023-03-23T15:11:21;2.83;;;1.33;;
39930;SDS011;26635;-35.248;149.138;2023-03-23T15:13:51;5.18;;;1.85;;
39930;SDS011;26635;-35.248;149.138;2023-03-23T15:16:27;3.38;;;1.58;;
39930;SDS011;26635;-35.248;149.138;2023-03-23T15:18:58;2.38;;;1.50;;
39930;SDS011;26635;-35.248;149.138;2023-03-23T15:21:28;2.08;;;0.93;;
39930;SDS011;26635;-35.248;149.138;2023-03-23T15:23:58;4.07;;;1.45;;
39930;SDS011;26635;-35.248;149.138;2023-03-23T15:26:30;2.58;;;1.58;;
39930;SDS011;26635;-35.248;149.138;2023-03-23T15:31:57;2.25;;;1.33;;
39930;SDS011;26635;-35.248;149.138;2023-03-23T15:34:36;2.47;;;1.17;;
39930;SDS011;26635;-35.248;149.138;2023-03-23T15:37:18;4.90;;;1.65;;
39930;SDS011;26635;-35.248;149.138;2023-03-23T15:39:48;7.75;;;1.92;;
39930;SDS011;26635;-35.248;149.138;2023-03-23T15:42:26;3.83;;;1.83;;
39930;SDS011;26635;-35.248;149.138;2023-03-23T15:45:14;3.75;;;1.40;;
39930;SDS011;26635;-35.248;149.138;2023-03-23T15:47:52;2.08;;;1.33;;
39930;SDS011;26635;-35.248;149.138;2023-03-23T15:52:55;2.53;;;1.23;;
39930;SDS011;26635;-35.248;149.138;2023-03-23T15:55:57;3.80;;;1.35;;
39930;SDS011;26635;-35.248;149.138;2023-03-23T15:58:18;3.83;;;1.40;;
39930;SDS011;26635;-35.248;149.138;2023-03-23T16:00:49;3.15;;;1.33;;
39930;SDS011;26635;-35.248;149.138;2023-03-23T16:03:27;4.28;;;1.20;;
39930;SDS011;26635;-35.248;149.138;2023-03-23T16:06:12;2.63;;;1.30;;
39930;SDS011;26635;-35.248;149.138;2023-03-23T16:08:54;2.50;;;1.25;;
39930;SDS011;26635;-35.248;149.138;2023-03-23T16:11:27;2.83;;;1.13;;
39930;SDS011;26635;-35.248;149.138;2023-03-23T16:13:59;3.28;;;1.10;;
39930;SDS011;26635;-35.248;149.138;2023-03-23T16:16:33;3.20;;;1.10;;
39930;SDS011;26635;-35.248;149.138;2023-03-23T16:19:13;1.95;;;1.08;;
39930;SDS011;26635;-35.248;149.138;2023-03-23T16:21:44;1.63;;;1.40;;
39930;SDS011;26635;-35.248;149.138;2023-03-23T16:24:15;2.45;;;1.45;;
39930;SDS011;26635;-35.248;149.138;2023-03-23T16:26:45;5.47;;;1.60;;
39930;SDS011;26635;-35.248;149.138;2023-03-23T16:29:15;2.65;;;1.30;;
39930;SDS011;26635;-35.248;149.138;2023-03-23T16:32:06;3.10;;;1.10;;
39930;SDS011;26635;-35.248;149.138;2023-03-23T16:34:36;4.07;;;1.00;;
39930;SDS011;26635;-35.248;149.138;2023-03-23T16:37:08;3.00;;;1.45;;
39930;SDS011;26635;-35.248;149.138;2023-03-23T16:39:40;3.25;;;1.48;;
39930;SDS011;26635;-35.248;149.138;2023-03-23T16:42:10;2.35;;;1.27;;
39930;SDS011;26635;-35.248;149.138;2023-03-23T16:44:41;2.72;;;1.10;;
39930;SDS011;26635;-35.248;149.138;2023-03-23T16:47:11;1.95;;;1.10;;
39930;SDS011;26635;-35.248;149.138;2023-03-23T16:49:43;1.92;;;1.00;;
39930;SDS011;26635;-35.248;149.138;2023-03-23T16:52:14;4.82;;;1.00;;
39930;SDS011;26635;-35.248;149.138;2023-03-23T16:54:44;3.08;;;1.20;;
39930;SDS011;26635;-35.248;149.138;2023-03-23T16:57:16;3.65;;;1.30;;
39930;SDS011;26635;-35.248;149.138;2023-03-23T16:59:47;1.42;;;1.00;;
39930;SDS011;26635;-35.248;149.138;2023-03-23T17:02:17;2.50;;;0.98;;
39930;SDS011;26635;-35.248;149.138;2023-03-23T17:04:47;1.67;;;1.00;;
39930;SDS011;26635;-35.248;149.138;2023-03-23T17:07:18;2.92;;;0.80;;
39930;SDS011;26635;-35.248;149.138;2023-03-23T17:09:48;4.00;;;1.27;;
39930;SDS011;26635;-35.248;149.138;2023-03-23T17:12:19;2.25;;;1.10;;
39930;SDS011;26635;-35.248;149.138;2023-03-23T17:14:50;3.97;;;0.85;;
39930;SDS011;26635;-35.248;149.138;2023-03-23T17:17:21;3.72;;;1.48;;